createdAt,value
2017-10-09T00:00:25.119Z,0
2017-10-09T00:01:05.561Z,0
2017-10-09T00:01:46.016Z,0
2017-10-09T00:02:26.465Z,0
2017-10-09T00:03:06.924Z,0
2017-10-09T00:03:47.384Z,0
2017-10-09T00:04:27.837Z,0
2017-10-09T00:05:08.294Z,0
2017-10-09T00:05:48.750Z,0
2017-10-09T00:06:29.223Z,0
2017-10-09T00:07:09.675Z,0
2017-10-09T00:07:50.146Z,0
2017-10-09T00:08:30.598Z,0
2017-10-09T00:09:11.058Z,0
2017-10-09T00:09:51.535Z,0
2017-10-09T00:10:31.992Z,0
2017-10-09T00:11:12.453Z,0
2017-10-09T00:11:52.911Z,0
2017-10-09T00:12:33.362Z,0
2017-10-09T00:13:13.816Z,0
2017-10-09T00:13:54.288Z,0
2017-10-09T00:14:34.741Z,0
2017-10-09T00:15:15.194Z,0
2017-10-09T00:15:55.668Z,0
2017-10-09T00:16:36.130Z,0
2017-10-09T00:17:16.584Z,0
2017-10-09T00:17:57.042Z,0
2017-10-09T00:18:37.503Z,0
2017-10-09T00:19:17.959Z,0
2017-10-09T00:19:58.417Z,0
2017-10-09T00:20:38.866Z,0
2017-10-09T00:21:19.312Z,0
2017-10-09T00:21:59.761Z,0
2017-10-09T00:22:40.221Z,0
2017-10-09T00:23:20.678Z,0
2017-10-09T00:24:01.135Z,0
2017-10-09T00:24:41.585Z,0
2017-10-09T00:25:22.038Z,0
2017-10-09T00:26:02.499Z,0
2017-10-09T00:26:42.957Z,0
2017-10-09T00:27:23.411Z,0
2017-10-09T00:28:03.866Z,0
2017-10-09T00:28:44.328Z,0
2017-10-09T00:29:24.777Z,0
2017-10-09T00:30:05.233Z,0
2017-10-09T00:30:45.700Z,0
2017-10-09T00:31:26.151Z,0
2017-10-09T00:32:06.609Z,0
2017-10-09T00:32:47.068Z,0
2017-10-09T00:33:27.521Z,0
2017-10-09T00:34:07.992Z,0
2017-10-09T00:34:48.432Z,0
2017-10-09T00:35:28.909Z,0
2017-10-09T00:36:09.357Z,0
2017-10-09T00:36:49.824Z,0
2017-10-09T00:37:30.284Z,0
2017-10-09T00:38:10.731Z,0
2017-10-09T00:40:08.432Z,0
2017-10-09T00:40:48.882Z,0
2017-10-09T00:41:29.332Z,0
2017-10-09T00:42:09.790Z,0
2017-10-09T00:42:50.249Z,0
2017-10-09T00:43:30.701Z,0
2017-10-09T00:44:11.155Z,0
2017-10-09T00:44:51.609Z,0
2017-10-09T00:45:32.087Z,0
2017-10-09T00:46:12.542Z,0
2017-10-09T00:46:52.997Z,0
2017-10-09T00:47:33.447Z,0
2017-10-09T00:48:13.905Z,0
2017-10-09T00:48:54.360Z,0
2017-10-09T00:49:34.817Z,0
2017-10-09T00:50:15.263Z,0
2017-10-09T00:50:55.718Z,0
2017-10-09T00:51:36.184Z,0
2017-10-09T00:52:16.632Z,0
2017-10-09T00:52:57.086Z,0
2017-10-09T00:53:37.538Z,0
2017-10-09T00:54:18.009Z,0
2017-10-09T00:54:58.458Z,0
2017-10-09T00:55:38.923Z,0
2017-10-09T00:56:19.382Z,0
2017-10-09T00:56:59.838Z,0
2017-10-09T00:57:40.295Z,0
2017-10-09T00:58:20.750Z,0
2017-10-09T00:59:01.210Z,0
2017-10-09T00:59:41.664Z,0
2017-10-09T01:00:22.113Z,0
2017-10-09T01:01:02.607Z,0
2017-10-09T01:01:43.016Z,0
2017-10-09T01:02:23.475Z,0
2017-10-09T01:03:03.931Z,0
2017-10-09T01:03:44.384Z,0
2017-10-09T01:04:24.832Z,0
2017-10-09T01:05:05.291Z,0
2017-10-09T01:05:45.751Z,0
2017-10-09T01:06:26.201Z,0
2017-10-09T01:07:06.663Z,0
2017-10-09T01:07:47.114Z,0
2017-10-09T01:08:27.571Z,0
2017-10-09T01:09:08.034Z,0
2017-10-09T01:09:48.484Z,0
2017-10-09T01:10:28.940Z,0
2017-10-09T01:11:09.397Z,0
2017-10-09T01:11:49.838Z,0
2017-10-09T01:12:30.290Z,0
2017-10-09T01:13:10.739Z,0
2017-10-09T01:13:51.188Z,0
2017-10-09T01:14:31.638Z,0
2017-10-09T01:15:12.088Z,0
2017-10-09T01:15:52.541Z,0
2017-10-09T01:16:33.005Z,0
2017-10-09T01:17:13.460Z,0
2017-10-09T01:17:53.914Z,0
2017-10-09T01:18:34.364Z,0
2017-10-09T01:19:14.822Z,0
2017-10-09T01:19:55.269Z,0
2017-10-09T01:20:35.740Z,0
2017-10-09T01:21:16.228Z,0
2017-10-09T01:21:56.704Z,0
2017-10-09T01:22:37.128Z,0
2017-10-09T01:23:17.577Z,0
2017-10-09T01:23:58.018Z,0
2017-10-09T01:24:38.459Z,0
2017-10-09T01:25:18.907Z,0
2017-10-09T01:25:59.354Z,0
2017-10-09T01:26:39.790Z,0
2017-10-09T01:27:20.247Z,0
2017-10-09T01:28:00.714Z,0
2017-10-09T01:28:41.159Z,0
2017-10-09T01:29:21.607Z,0
2017-10-09T01:30:02.051Z,0
2017-10-09T01:30:42.496Z,0
2017-10-09T01:31:22.952Z,0
2017-10-09T01:32:03.411Z,0
2017-10-09T01:32:43.852Z,0
2017-10-09T01:33:24.302Z,0
2017-10-09T01:34:04.747Z,0
2017-10-09T01:34:45.187Z,0
2017-10-09T01:35:25.636Z,0
2017-10-09T01:36:06.084Z,0
2017-10-09T01:36:46.529Z,0
2017-10-09T01:37:26.977Z,0
2017-10-09T01:38:07.426Z,0
2017-10-09T01:38:47.883Z,0
2017-10-09T01:39:28.350Z,0
2017-10-09T01:40:08.809Z,0
2017-10-09T01:40:49.262Z,0
2017-10-09T01:41:29.714Z,0
2017-10-09T01:42:10.166Z,0
2017-10-09T01:42:50.615Z,0
2017-10-09T01:43:31.074Z,0
2017-10-09T01:44:11.539Z,0
2017-10-09T01:44:51.988Z,0
2017-10-09T01:45:32.444Z,0
2017-10-09T01:46:12.913Z,0
2017-10-09T01:46:53.353Z,0
2017-10-09T01:47:33.809Z,0
2017-10-09T01:48:14.259Z,0
2017-10-09T01:48:54.705Z,0
2017-10-09T01:49:35.159Z,0
2017-10-09T01:50:15.611Z,0
2017-10-09T01:50:56.062Z,0
2017-10-09T01:51:36.513Z,0
2017-10-09T01:52:16.981Z,0
2017-10-09T01:52:57.446Z,0
2017-10-09T01:53:37.905Z,0
2017-10-09T01:54:18.359Z,0
2017-10-09T01:54:58.810Z,0
2017-10-09T01:55:39.258Z,0
2017-10-09T01:56:19.714Z,0
2017-10-09T01:57:00.169Z,0
2017-10-09T01:57:40.612Z,0
2017-10-09T01:58:21.064Z,0
2017-10-09T01:59:01.515Z,0
2017-10-09T01:59:41.974Z,0
2017-10-09T02:00:22.421Z,0
2017-10-09T02:01:02.877Z,0
2017-10-09T02:01:43.342Z,0
2017-10-09T02:02:23.796Z,0
2017-10-09T02:03:04.248Z,0
2017-10-09T02:03:44.710Z,0
2017-10-09T02:04:25.166Z,0
2017-10-09T02:05:05.613Z,0
2017-10-09T02:05:46.069Z,0
2017-10-09T02:06:26.531Z,0
2017-10-09T02:07:06.974Z,0
2017-10-09T02:07:47.419Z,0
2017-10-09T02:08:27.862Z,0
2017-10-09T02:09:08.315Z,0
2017-10-09T02:09:48.765Z,0
2017-10-09T02:10:29.214Z,0
2017-10-09T02:11:09.683Z,0
2017-10-09T02:11:50.121Z,0
2017-10-09T02:12:30.576Z,0
2017-10-09T02:13:11.021Z,0
2017-10-09T02:13:51.484Z,0
2017-10-09T02:14:31.931Z,0
2017-10-09T02:15:12.392Z,0
2017-10-09T02:15:52.845Z,0
2017-10-09T02:16:33.290Z,0
2017-10-09T02:17:13.736Z,0
2017-10-09T02:17:54.186Z,0
2017-10-09T02:18:34.625Z,0
2017-10-09T02:19:15.071Z,0
2017-10-09T02:19:55.534Z,0
2017-10-09T02:20:35.989Z,0
2017-10-09T02:21:16.445Z,0
2017-10-09T02:21:56.904Z,0
2017-10-09T02:22:37.355Z,0
2017-10-09T02:23:17.811Z,0
2017-10-09T02:23:58.264Z,0
2017-10-09T02:24:38.729Z,0
2017-10-09T02:25:19.187Z,0
2017-10-09T02:25:59.638Z,0
2017-10-09T02:26:40.088Z,0
2017-10-09T02:27:20.559Z,0
2017-10-09T02:28:01.022Z,0
2017-10-09T02:28:41.465Z,0
2017-10-09T02:29:21.919Z,0
2017-10-09T02:30:02.373Z,0
2017-10-09T02:30:42.821Z,0
2017-10-09T02:31:23.266Z,0
2017-10-09T02:32:03.714Z,0
2017-10-09T02:32:44.157Z,0
2017-10-09T02:33:24.614Z,0
2017-10-09T02:34:05.070Z,0
2017-10-09T02:34:45.531Z,0
2017-10-09T02:35:25.986Z,0
2017-10-09T02:36:06.440Z,0
2017-10-09T02:36:46.896Z,0
2017-10-09T02:37:27.357Z,0
2017-10-09T02:38:07.813Z,0
2017-10-09T02:38:48.251Z,0
2017-10-09T02:39:28.706Z,0
2017-10-09T02:40:09.162Z,0
2017-10-09T02:40:49.616Z,0
2017-10-09T02:41:30.052Z,0
2017-10-09T02:42:10.547Z,0
2017-10-09T02:42:50.986Z,0
2017-10-09T02:43:31.437Z,0
2017-10-09T02:44:11.896Z,0
2017-10-09T02:44:52.352Z,0
2017-10-09T02:45:32.792Z,0
2017-10-09T02:46:13.240Z,0
2017-10-09T02:46:53.699Z,0
2017-10-09T02:47:34.161Z,0
2017-10-09T02:48:14.615Z,0
2017-10-09T02:48:55.069Z,0
2017-10-09T02:49:35.542Z,0
2017-10-09T02:50:15.987Z,0
2017-10-09T02:50:56.449Z,0
2017-10-09T02:51:36.881Z,0
2017-10-09T02:52:17.331Z,0
2017-10-09T02:52:57.780Z,0
2017-10-09T02:53:38.235Z,0
2017-10-09T02:54:18.678Z,0
2017-10-09T02:54:59.126Z,0
2017-10-09T02:55:39.582Z,0
2017-10-09T02:56:20.044Z,0
2017-10-09T02:57:00.499Z,0
2017-10-09T02:57:40.962Z,0
2017-10-09T02:58:21.415Z,0
2017-10-09T02:59:01.882Z,0
2017-10-09T02:59:42.330Z,0
2017-10-09T03:00:22.782Z,0
2017-10-09T03:01:03.230Z,0
2017-10-09T03:01:43.684Z,0
2017-10-09T03:02:24.134Z,0
2017-10-09T03:03:04.590Z,0
2017-10-09T03:03:45.048Z,0
2017-10-09T03:04:25.507Z,0
2017-10-09T03:05:05.970Z,0
2017-10-09T03:05:46.421Z,0
2017-10-09T03:06:26.882Z,0
2017-10-09T03:07:07.328Z,0
2017-10-09T03:07:47.809Z,0
2017-10-09T03:08:28.263Z,0
2017-10-09T03:09:08.727Z,0
2017-10-09T03:09:49.174Z,0
2017-10-09T03:10:29.624Z,0
2017-10-09T03:11:10.083Z,0
2017-10-09T03:11:50.535Z,0
2017-10-09T03:12:30.998Z,0
2017-10-09T03:13:11.454Z,0
2017-10-09T03:13:51.911Z,0
2017-10-09T03:14:32.374Z,0
2017-10-09T03:15:12.827Z,0
2017-10-09T03:15:53.276Z,0
2017-10-09T03:16:33.729Z,0
2017-10-09T03:17:14.179Z,0
2017-10-09T03:17:54.633Z,0
2017-10-09T03:18:35.085Z,0
2017-10-09T03:19:15.547Z,0
2017-10-09T03:19:56.000Z,0
2017-10-09T03:20:36.440Z,0
2017-10-09T03:21:16.893Z,0
2017-10-09T03:21:57.351Z,0
2017-10-09T03:22:37.806Z,0
2017-10-09T03:23:18.259Z,0
2017-10-09T03:23:58.721Z,0
2017-10-09T03:24:39.170Z,0
2017-10-09T03:25:19.628Z,0
2017-10-09T03:26:00.101Z,0
2017-10-09T03:26:40.539Z,0
2017-10-09T03:27:20.990Z,0
2017-10-09T03:28:01.432Z,0
2017-10-09T03:28:41.886Z,0
2017-10-09T03:29:22.339Z,0
2017-10-09T03:30:02.795Z,0
2017-10-09T03:30:43.250Z,0
2017-10-09T03:31:23.718Z,0
2017-10-09T03:32:04.181Z,0
2017-10-09T03:32:44.628Z,0
2017-10-09T03:33:25.087Z,0
2017-10-09T03:34:05.545Z,0
2017-10-09T03:34:46.006Z,0
2017-10-09T03:35:26.480Z,0
2017-10-09T03:36:06.919Z,0
2017-10-09T03:36:47.394Z,0
2017-10-09T03:37:27.832Z,0
2017-10-09T03:38:08.257Z,0
2017-10-09T03:38:48.724Z,0
2017-10-09T03:39:29.170Z,0
2017-10-09T03:40:09.608Z,0
2017-10-09T03:40:50.062Z,0
2017-10-09T03:41:30.515Z,0
2017-10-09T03:42:10.964Z,0
2017-10-09T03:42:51.420Z,0
2017-10-09T03:43:31.881Z,0
2017-10-09T03:44:12.352Z,0
2017-10-09T03:44:52.789Z,0
2017-10-09T03:45:33.248Z,0
2017-10-09T03:46:13.703Z,0
2017-10-09T03:46:54.152Z,0
2017-10-09T03:47:34.595Z,4
2017-10-09T03:48:15.062Z,4
2017-10-09T03:48:55.524Z,4
2017-10-09T03:49:35.981Z,4
2017-10-09T03:50:16.426Z,0
2017-10-09T03:50:56.881Z,0
2017-10-09T03:51:37.342Z,0
2017-10-09T03:52:17.800Z,0
2017-10-09T03:52:58.252Z,0
2017-10-09T03:53:38.696Z,0
2017-10-09T03:54:19.143Z,0
2017-10-09T03:54:59.598Z,0
2017-10-09T03:55:40.047Z,0
2017-10-09T03:56:20.487Z,0
2017-10-09T03:57:00.948Z,0
2017-10-09T03:57:41.397Z,0
2017-10-09T03:58:21.857Z,0
2017-10-09T03:59:02.309Z,0
2017-10-09T03:59:42.764Z,0
2017-10-09T04:00:23.222Z,0
2017-10-09T04:01:03.671Z,0
2017-10-09T04:01:44.122Z,0
2017-10-09T04:02:24.579Z,0
2017-10-09T04:03:05.045Z,0
2017-10-09T04:03:45.494Z,0
2017-10-09T04:04:25.956Z,0
2017-10-09T04:05:06.420Z,0
2017-10-09T04:05:46.865Z,0
2017-10-09T04:06:27.374Z,0
2017-10-09T04:07:07.831Z,0
2017-10-09T04:07:48.301Z,0
2017-10-09T04:08:28.762Z,0
2017-10-09T04:09:09.205Z,0
2017-10-09T04:09:49.653Z,0
2017-10-09T04:10:30.123Z,0
2017-10-09T04:11:10.570Z,0
2017-10-09T04:11:51.025Z,0
2017-10-09T04:12:31.473Z,0
2017-10-09T04:13:11.924Z,0
2017-10-09T04:13:52.373Z,0
2017-10-09T04:14:32.828Z,0
2017-10-09T04:15:13.290Z,0
2017-10-09T04:15:53.736Z,0
2017-10-09T04:16:34.197Z,0
2017-10-09T04:17:14.650Z,0
2017-10-09T04:17:55.110Z,0
2017-10-09T04:18:35.553Z,0
2017-10-09T04:19:16.004Z,0
2017-10-09T04:19:56.480Z,0
2017-10-09T04:20:36.926Z,0
2017-10-09T04:21:17.373Z,0
2017-10-09T04:21:57.833Z,0
2017-10-09T04:22:38.305Z,0
2017-10-09T04:23:18.747Z,0
2017-10-09T04:23:59.207Z,0
2017-10-09T04:24:39.659Z,0
2017-10-09T04:25:20.107Z,0
2017-10-09T04:26:00.561Z,0
2017-10-09T04:26:40.997Z,0
2017-10-09T04:27:21.455Z,0
2017-10-09T04:28:01.910Z,0
2017-10-09T04:28:42.373Z,0
2017-10-09T04:29:22.829Z,0
2017-10-09T04:30:03.299Z,0
2017-10-09T04:30:43.750Z,0
2017-10-09T04:31:24.211Z,0
2017-10-09T04:32:04.664Z,0
2017-10-09T04:32:45.120Z,0
2017-10-09T04:33:25.578Z,0
2017-10-09T04:34:06.038Z,0
2017-10-09T04:34:46.498Z,0
2017-10-09T04:35:26.955Z,0
2017-10-09T04:36:07.410Z,0
2017-10-09T04:36:47.862Z,0
2017-10-09T04:37:28.323Z,0
2017-10-09T04:38:08.781Z,0
2017-10-09T04:38:49.236Z,0
2017-10-09T04:39:29.690Z,0
2017-10-09T04:40:10.143Z,0
2017-10-09T04:40:50.599Z,0
2017-10-09T04:41:31.066Z,0
2017-10-09T04:42:11.504Z,0
2017-10-09T04:42:51.958Z,0
2017-10-09T04:43:32.424Z,0
2017-10-09T04:44:12.883Z,0
2017-10-09T04:44:53.333Z,0
2017-10-09T04:45:33.795Z,0
2017-10-09T04:46:14.249Z,0
2017-10-09T04:46:54.705Z,0
2017-10-09T04:47:35.172Z,0
2017-10-09T04:48:15.652Z,0
2017-10-09T04:48:56.101Z,0
2017-10-09T04:49:36.559Z,0
2017-10-09T04:50:17.016Z,0
2017-10-09T04:50:57.467Z,0
2017-10-09T04:51:37.918Z,0
2017-10-09T04:52:18.382Z,0
2017-10-09T04:52:58.834Z,0
2017-10-09T04:53:39.286Z,0
2017-10-09T04:54:19.743Z,0
2017-10-09T04:55:00.192Z,0
2017-10-09T04:55:40.645Z,0
2017-10-09T04:56:21.101Z,0
2017-10-09T04:57:01.546Z,0
2017-10-09T04:57:41.995Z,0
2017-10-09T04:58:22.445Z,0
2017-10-09T04:59:02.897Z,0
2017-10-09T04:59:43.352Z,0
2017-10-09T05:00:23.808Z,0
2017-10-09T05:01:04.266Z,0
2017-10-09T05:01:44.723Z,0
2017-10-09T05:02:25.174Z,0
2017-10-09T05:03:05.627Z,0
2017-10-09T05:03:46.084Z,0
2017-10-09T05:04:26.542Z,0
2017-10-09T05:05:06.995Z,0
2017-10-09T05:05:47.464Z,0
2017-10-09T05:06:27.905Z,0
2017-10-09T05:07:08.367Z,0
2017-10-09T05:07:48.841Z,0
2017-10-09T05:08:29.306Z,0
2017-10-09T05:09:09.762Z,0
2017-10-09T05:09:50.221Z,0
2017-10-09T05:10:30.678Z,0
2017-10-09T05:11:11.126Z,0
2017-10-09T05:11:51.589Z,0
2017-10-09T05:12:32.042Z,0
2017-10-09T05:13:12.495Z,0
2017-10-09T05:13:52.961Z,0
2017-10-09T05:14:33.417Z,0
2017-10-09T05:15:13.872Z,0
2017-10-09T05:15:54.319Z,0
2017-10-09T05:16:34.774Z,0
2017-10-09T05:17:15.231Z,0
2017-10-09T05:17:55.685Z,0
2017-10-09T05:18:36.142Z,0
2017-10-09T05:19:16.595Z,0
2017-10-09T05:19:57.062Z,4
2017-10-09T05:20:37.517Z,4
2017-10-09T05:21:17.972Z,0
2017-10-09T05:21:58.427Z,0
2017-10-09T05:22:38.885Z,0
2017-10-09T05:23:19.341Z,0
2017-10-09T05:23:59.798Z,4
2017-10-09T05:24:40.249Z,4
2017-10-09T05:25:20.688Z,4
2017-10-09T05:26:01.139Z,0
2017-10-09T05:26:41.596Z,4
2017-10-09T05:27:22.032Z,4
2017-10-09T05:28:02.499Z,4
2017-10-09T05:28:42.953Z,4
2017-10-09T05:29:23.405Z,4
2017-10-09T05:30:03.840Z,4
2017-10-09T05:30:44.302Z,4
2017-10-09T05:31:24.752Z,4
2017-10-09T05:32:05.202Z,8
2017-10-09T05:32:45.660Z,8
2017-10-09T05:33:26.114Z,8
2017-10-09T05:34:06.592Z,8
2017-10-09T05:34:47.041Z,8
2017-10-09T05:35:27.534Z,12
2017-10-09T05:36:07.974Z,12
2017-10-09T05:36:48.435Z,12
2017-10-09T05:37:28.889Z,12
2017-10-09T05:38:09.352Z,8
2017-10-09T05:38:49.808Z,12
2017-10-09T05:39:30.263Z,12
2017-10-09T05:40:10.719Z,8
2017-10-09T05:40:51.159Z,12
2017-10-09T05:41:31.614Z,12
2017-10-09T05:42:12.071Z,12
2017-10-09T05:42:52.552Z,16
2017-10-09T05:43:33.008Z,16
2017-10-09T05:44:13.449Z,16
2017-10-09T05:44:53.894Z,16
2017-10-09T05:45:34.345Z,20
2017-10-09T05:46:14.801Z,20
2017-10-09T05:46:55.252Z,24
2017-10-09T05:47:35.708Z,28
2017-10-09T05:48:16.155Z,28
2017-10-09T05:48:56.616Z,32
2017-10-09T05:49:37.080Z,32
2017-10-09T05:50:17.531Z,32
2017-10-09T05:50:57.988Z,40
2017-10-09T05:51:38.439Z,44
2017-10-09T05:52:18.889Z,44
2017-10-09T05:52:59.345Z,48
2017-10-09T05:53:39.806Z,52
2017-10-09T05:54:20.248Z,52
2017-10-09T05:55:00.707Z,52
2017-10-09T05:55:41.160Z,56
2017-10-09T05:56:21.623Z,60
2017-10-09T05:57:02.078Z,56
2017-10-09T05:57:42.530Z,64
2017-10-09T05:58:22.980Z,64
2017-10-09T05:59:03.436Z,72
2017-10-09T05:59:43.896Z,72
2017-10-09T06:00:24.341Z,84
2017-10-09T06:01:04.792Z,84
2017-10-09T06:01:45.249Z,92
2017-10-09T06:02:25.703Z,92
2017-10-09T06:03:06.149Z,100
2017-10-09T06:03:46.603Z,100
2017-10-09T06:04:27.057Z,112
2017-10-09T06:05:07.515Z,116
2017-10-09T06:05:47.970Z,124
2017-10-09T06:06:28.429Z,128
2017-10-09T06:07:08.881Z,136
2017-10-09T06:07:49.342Z,144
2017-10-09T06:08:29.785Z,156
2017-10-09T06:09:10.250Z,164
2017-10-09T06:09:50.702Z,172
2017-10-09T06:10:31.157Z,184
2017-10-09T06:11:11.604Z,192
2017-10-09T06:11:52.061Z,200
2017-10-09T06:12:32.521Z,200
2017-10-09T06:13:12.976Z,204
2017-10-09T06:13:53.448Z,196
2017-10-09T06:14:34.245Z,180
2017-10-09T06:15:14.687Z,164
2017-10-09T06:15:55.143Z,156
2017-10-09T06:16:35.592Z,148
2017-10-09T06:17:16.046Z,144
2017-10-09T06:17:56.507Z,140
2017-10-09T06:18:36.965Z,136
2017-10-09T06:19:17.419Z,136
2017-10-09T06:19:57.851Z,136
2017-10-09T06:20:38.293Z,140
2017-10-09T06:21:18.743Z,140
2017-10-09T06:21:59.205Z,144
2017-10-09T06:22:39.654Z,144
2017-10-09T06:23:20.116Z,136
2017-10-09T06:24:00.573Z,136
2017-10-09T06:24:41.033Z,136
2017-10-09T06:25:21.481Z,136
2017-10-09T06:26:01.951Z,136
2017-10-09T06:26:42.390Z,136
2017-10-09T06:27:22.834Z,136
2017-10-09T06:28:03.293Z,132
2017-10-09T06:28:43.753Z,132
2017-10-09T06:29:24.206Z,128
2017-10-09T06:30:04.686Z,132
2017-10-09T06:30:45.120Z,132
2017-10-09T06:31:25.568Z,136
2017-10-09T06:32:06.015Z,148
2017-10-09T06:32:46.487Z,148
2017-10-09T06:33:26.935Z,152
2017-10-09T06:34:07.419Z,152
2017-10-09T06:34:47.878Z,156
2017-10-09T06:35:28.329Z,156
2017-10-09T06:36:08.772Z,164
2017-10-09T06:36:49.239Z,172
2017-10-09T06:37:29.694Z,184
2017-10-09T06:38:10.134Z,196
2017-10-09T06:38:50.583Z,208
2017-10-09T06:39:31.029Z,224
2017-10-09T06:40:11.484Z,244
2017-10-09T06:40:51.936Z,276
2017-10-09T06:41:32.389Z,320
2017-10-09T06:42:12.855Z,372
2017-10-09T06:42:53.310Z,428
2017-10-09T06:43:33.769Z,488
2017-10-09T06:44:14.221Z,520
2017-10-09T06:44:54.674Z,528
2017-10-09T06:45:35.129Z,540
2017-10-09T06:46:15.614Z,548
2017-10-09T06:46:56.062Z,544
2017-10-09T06:47:36.517Z,544
2017-10-09T06:48:16.970Z,532
2017-10-09T06:48:57.414Z,516
2017-10-09T06:49:37.869Z,492
2017-10-09T06:50:18.306Z,480
2017-10-09T06:50:58.769Z,468
2017-10-09T06:51:39.217Z,460
2017-10-09T06:52:19.676Z,440
2017-10-09T06:53:00.130Z,424
2017-10-09T06:53:40.576Z,412
2017-10-09T06:54:21.027Z,408
2017-10-09T06:55:01.481Z,416
2017-10-09T06:55:41.940Z,424
2017-10-09T06:56:22.393Z,452
2017-10-09T06:57:02.841Z,488
2017-10-09T06:57:43.309Z,536
2017-10-09T06:58:23.750Z,576
2017-10-09T06:59:04.198Z,588
2017-10-09T06:59:44.654Z,596
2017-10-09T07:00:25.115Z,604
2017-10-09T07:01:05.564Z,620
2017-10-09T07:01:46.018Z,640
2017-10-09T07:02:26.477Z,660
2017-10-09T07:03:06.947Z,708
2017-10-09T07:03:47.386Z,756
2017-10-09T07:04:27.843Z,824
2017-10-09T07:05:08.301Z,840
2017-10-09T07:05:48.764Z,876
2017-10-09T07:06:29.234Z,916
2017-10-09T07:07:09.676Z,880
2017-10-09T07:07:50.133Z,936
2017-10-09T07:08:30.577Z,976
2017-10-09T07:09:11.030Z,904
2017-10-09T07:09:51.484Z,948
2017-10-09T07:10:31.942Z,1196
2017-10-09T07:11:12.391Z,1176
2017-10-09T07:11:52.846Z,1556
2017-10-09T07:12:33.292Z,1824
2017-10-09T07:13:13.756Z,1900
2017-10-09T07:13:54.206Z,1872
2017-10-09T07:14:34.666Z,1636
2017-10-09T07:15:15.120Z,1404
2017-10-09T07:15:55.573Z,1356
2017-10-09T07:16:36.836Z,1312
2017-10-09T07:17:17.285Z,1300
2017-10-09T07:17:57.738Z,1684
2017-10-09T07:18:38.195Z,1768
2017-10-09T07:19:18.652Z,1604
2017-10-09T07:19:59.111Z,1404
2017-10-09T07:20:39.560Z,1360
2017-10-09T07:21:20.015Z,1308
2017-10-09T07:22:00.476Z,1328
2017-10-09T07:22:40.930Z,1328
2017-10-09T07:23:21.377Z,1452
2017-10-09T07:24:01.831Z,1528
2017-10-09T07:24:42.287Z,1472
2017-10-09T07:25:22.747Z,1252
2017-10-09T07:26:03.198Z,1048
2017-10-09T07:26:43.645Z,972
2017-10-09T07:27:24.093Z,1012
2017-10-09T07:28:04.548Z,688
2017-10-09T07:28:44.999Z,640
2017-10-09T07:29:25.452Z,624
2017-10-09T07:30:05.909Z,612
2017-10-09T07:30:46.362Z,592
2017-10-09T07:31:26.813Z,608
2017-10-09T07:32:07.274Z,536
2017-10-09T07:32:47.734Z,488
2017-10-09T07:33:28.188Z,444
2017-10-09T07:34:08.632Z,416
2017-10-09T07:34:49.073Z,392
2017-10-09T07:35:29.497Z,372
2017-10-09T07:36:09.932Z,364
2017-10-09T07:36:50.372Z,352
2017-10-09T07:37:30.806Z,348
2017-10-09T07:38:11.212Z,344
2017-10-09T07:38:51.655Z,344
2017-10-09T07:39:32.079Z,348
2017-10-09T07:40:12.518Z,356
2017-10-09T07:40:52.971Z,368
2017-10-09T07:41:33.371Z,380
2017-10-09T07:42:13.792Z,388
2017-10-09T07:42:54.195Z,392
2017-10-09T07:43:34.673Z,396
2017-10-09T07:44:15.092Z,392
2017-10-09T07:44:55.474Z,388
2017-10-09T07:45:35.898Z,384
2017-10-09T07:46:16.316Z,376
2017-10-09T07:46:56.710Z,368
2017-10-09T07:47:37.120Z,360
2017-10-09T07:48:17.524Z,344
2017-10-09T07:48:57.965Z,328
2017-10-09T07:49:38.413Z,312
2017-10-09T07:50:18.875Z,296
2017-10-09T07:50:59.334Z,292
2017-10-09T07:51:39.792Z,292
2017-10-09T07:52:20.260Z,296
2017-10-09T07:53:00.708Z,300
2017-10-09T07:53:41.163Z,304
2017-10-09T07:54:21.615Z,312
2017-10-09T07:55:02.054Z,320
2017-10-09T07:55:42.508Z,332
2017-10-09T07:56:22.962Z,344
2017-10-09T07:57:03.431Z,352
2017-10-09T07:57:43.898Z,352
2017-10-09T07:58:24.355Z,356
2017-10-09T07:59:04.809Z,356
2017-10-09T07:59:45.255Z,360
2017-10-09T08:00:25.711Z,368
2017-10-09T08:01:06.162Z,376
2017-10-09T08:01:46.608Z,380
2017-10-09T08:02:27.062Z,388
2017-10-09T08:03:07.520Z,388
2017-10-09T08:03:47.980Z,380
2017-10-09T08:04:28.430Z,372
2017-10-09T08:05:08.867Z,364
2017-10-09T08:05:49.316Z,352
2017-10-09T08:06:29.763Z,352
2017-10-09T08:07:10.225Z,360
2017-10-09T08:07:50.681Z,384
2017-10-09T08:08:31.151Z,408
2017-10-09T08:09:11.637Z,432
2017-10-09T08:09:52.050Z,448
2017-10-09T08:10:32.503Z,460
2017-10-09T08:11:12.960Z,472
2017-10-09T08:11:53.423Z,472
2017-10-09T08:12:33.883Z,468
2017-10-09T08:13:14.334Z,460
2017-10-09T08:13:54.784Z,452
2017-10-09T08:14:35.223Z,448
2017-10-09T08:15:15.676Z,444
2017-10-09T08:15:56.127Z,444
2017-10-09T08:16:36.576Z,448
2017-10-09T08:17:17.054Z,452
2017-10-09T08:17:57.527Z,468
2017-10-09T08:18:37.975Z,492
2017-10-09T08:19:18.431Z,520
2017-10-09T08:19:58.866Z,532
2017-10-09T08:20:39.314Z,544
2017-10-09T08:21:19.779Z,552
2017-10-09T08:22:00.249Z,556
2017-10-09T08:22:40.721Z,556
2017-10-09T08:23:21.194Z,556
2017-10-09T08:24:01.647Z,564
2017-10-09T08:24:42.098Z,572
2017-10-09T08:25:22.558Z,568
2017-10-09T08:26:02.997Z,564
2017-10-09T08:26:43.445Z,576
2017-10-09T08:27:23.899Z,604
2017-10-09T08:28:04.360Z,624
2017-10-09T08:28:44.841Z,636
2017-10-09T08:29:25.311Z,636
2017-10-09T08:30:05.744Z,648
2017-10-09T08:30:46.200Z,660
2017-10-09T08:31:26.656Z,672
2017-10-09T08:32:07.112Z,668
2017-10-09T08:32:47.572Z,660
2017-10-09T08:33:28.027Z,660
2017-10-09T08:34:08.602Z,664
2017-10-09T08:34:49.052Z,664
2017-10-09T08:35:29.514Z,656
2017-10-09T08:36:09.973Z,652
2017-10-09T08:36:50.431Z,652
2017-10-09T08:37:30.883Z,652
2017-10-09T08:38:11.324Z,648
2017-10-09T08:38:51.776Z,640
2017-10-09T08:39:32.228Z,628
2017-10-09T08:40:12.682Z,632
2017-10-09T08:40:53.138Z,628
2017-10-09T08:41:33.583Z,612
2017-10-09T08:42:14.027Z,596
2017-10-09T08:42:54.481Z,580
2017-10-09T08:43:34.924Z,564
2017-10-09T08:44:15.367Z,548
2017-10-09T08:44:55.819Z,536
2017-10-09T08:45:36.294Z,520
2017-10-09T08:46:16.742Z,516
2017-10-09T08:46:57.203Z,524
2017-10-09T08:47:37.663Z,532
2017-10-09T08:48:18.124Z,544
2017-10-09T08:48:58.565Z,556
2017-10-09T08:49:39.020Z,568
2017-10-09T08:50:19.495Z,600
2017-10-09T08:50:59.948Z,648
2017-10-09T08:51:40.399Z,696
2017-10-09T08:52:20.854Z,752
2017-10-09T08:53:01.305Z,732
2017-10-09T08:53:41.758Z,748
2017-10-09T08:54:22.213Z,780
2017-10-09T08:55:02.737Z,816
2017-10-09T08:55:43.192Z,880
2017-10-09T08:56:23.648Z,980
2017-10-09T08:57:04.097Z,1128
2017-10-09T08:57:44.553Z,1136
2017-10-09T08:58:25.000Z,1164
2017-10-09T08:59:05.452Z,1164
2017-10-09T08:59:45.921Z,1196
2017-10-09T09:00:26.358Z,1200
2017-10-09T09:01:06.799Z,1188
2017-10-09T09:01:47.252Z,1196
2017-10-09T09:02:27.712Z,1168
2017-10-09T09:03:08.197Z,1152
2017-10-09T09:03:48.624Z,1136
2017-10-09T09:04:29.141Z,1120
2017-10-09T09:05:09.542Z,1144
2017-10-09T09:05:50.005Z,1148
2017-10-09T09:06:30.454Z,1176
2017-10-09T09:07:10.909Z,1208
2017-10-09T09:07:51.356Z,1264
2017-10-09T09:08:31.811Z,1404
2017-10-09T09:09:12.272Z,1472
2017-10-09T09:09:52.715Z,1504
2017-10-09T09:10:33.171Z,1668
2017-10-09T09:11:13.622Z,1588
2017-10-09T09:11:54.092Z,1628
2017-10-09T09:12:34.545Z,1828
2017-10-09T09:13:14.998Z,1940
2017-10-09T09:13:55.470Z,1896
2017-10-09T09:14:35.925Z,2060
2017-10-09T09:15:16.376Z,1984
2017-10-09T09:15:56.846Z,1964
2017-10-09T09:16:37.287Z,1984
2017-10-09T09:17:17.744Z,2148
2017-10-09T09:17:58.181Z,2148
2017-10-09T09:18:38.632Z,2160
2017-10-09T09:19:19.094Z,2108
2017-10-09T09:19:59.551Z,2112
2017-10-09T09:20:40.009Z,2312
2017-10-09T09:21:20.461Z,2328
2017-10-09T09:22:00.916Z,2376
2017-10-09T09:22:41.368Z,2348
2017-10-09T09:23:21.822Z,2612
2017-10-09T09:24:02.264Z,2824
2017-10-09T09:24:42.722Z,3084
2017-10-09T09:25:23.182Z,3192
2017-10-09T09:26:03.637Z,3148
2017-10-09T09:26:44.096Z,3612
2017-10-09T09:27:24.556Z,4324
2017-10-09T09:28:05.028Z,4540
2017-10-09T09:28:45.451Z,4772
2017-10-09T09:29:25.949Z,4228
2017-10-09T09:30:06.473Z,3908
2017-10-09T09:30:46.874Z,3264
2017-10-09T09:31:27.355Z,3492
2017-10-09T09:32:07.817Z,2508
2017-10-09T09:32:48.262Z,3748
2017-10-09T09:33:28.757Z,3244
2017-10-09T09:34:09.200Z,3212
2017-10-09T09:34:49.657Z,3548
2017-10-09T09:35:30.110Z,3812
2017-10-09T09:36:10.575Z,4080
2017-10-09T09:36:51.040Z,4392
2017-10-09T09:37:31.499Z,3536
2017-10-09T09:38:11.956Z,3188
2017-10-09T09:38:52.414Z,3216
2017-10-09T09:39:32.866Z,3064
2017-10-09T09:40:13.317Z,2868